KBIH/BIH METAR and TAF weather

Enter ICAO airport designator
Station Type Date Time Source
KBIH METAR 2020/09/23 01:56 UTC NOAA

KBIH 230156Z AUTO 19003KT 5SM HZ CLR 26/M03 A3005 RMK AO2 SLP138 T02611028


Station Type Date Time Source
KBIH Decoded METAR 2020/09/23 01:56 UTC NOAA

BISHOP AIRPORT, CA, United States (KBIH) 37-22N 118-22W 1253M
Sep 22, 2020 - 09:56 PM EDT / 2020.09.23 0156 UTC
Wind: from the S (190 degrees) at 3 MPH (3 KT):0
Visibility: 5 mile(s):0
Sky conditions: clear
Weather: haze
Temperature: 79.0 F (26.1 C)
Dew Point: 27.0 F (-2.8 C)
Relative Humidity: 14%
Pressure (altimeter): 30.05 in. Hg (1017 hPa)
ob: KBIH 230156Z AUTO 19003KT 5SM HZ CLR 26/M03 A3005 RMK AO2 SLP138 T02611028
cycle: 2

Station Type Date Time Source
KBIH TAF 2020/09/22 18:22 UTC NOAA

TAF KBIH 221720Z 2218/2318 17010KT 5SM FU FEW200
FM222200 28011KT 6SM FU SKC
FM230300 34008KT 5SM FU SKC
FM230700 VRB05KT 4SM FU SKC

Example: see airport list